createdAt,value
2023-05-07T00:00:12.641Z,53.64
2023-05-07T00:02:41.138Z,53.66
2023-05-07T00:05:09.724Z,53.84
2023-05-07T00:07:37.624Z,54.02
2023-05-07T00:10:07.334Z,54.15
2023-05-07T00:12:34.974Z,54.40
2023-05-07T00:15:06.217Z,54.42
2023-05-07T00:17:33.620Z,54.59
2023-05-07T00:20:00.501Z,54.68
2023-05-07T00:22:27.474Z,54.87
2023-05-07T00:24:54.416Z,54.86
2023-05-07T00:27:21.250Z,54.81
2023-05-07T00:29:53.246Z,54.84
2023-05-07T00:32:20.697Z,55.03
2023-05-07T00:34:47.527Z,55.04
2023-05-07T00:37:14.445Z,55.02
2023-05-07T00:39:41.339Z,55.06
2023-05-07T00:42:08.727Z,55.24
2023-05-07T00:44:36.383Z,55.48
2023-05-07T00:47:04.057Z,55.75
2023-05-07T00:49:42.579Z,56.04
2023-05-07T00:52:11.602Z,56.40
2023-05-07T00:54:38.462Z,56.58
2023-05-07T00:57:05.331Z,56.69
2023-05-07T00:59:33.391Z,56.71
2023-05-07T01:02:00.450Z,56.61
2023-05-07T01:04:27.550Z,56.63
2023-05-07T01:07:00.230Z,56.88
2023-05-07T01:09:27.742Z,56.86
2023-05-07T01:11:54.793Z,56.93
2023-05-07T01:14:21.644Z,56.80
2023-05-07T01:16:55.882Z,56.79
2023-05-07T01:19:23.778Z,57.29
2023-05-07T01:21:51.102Z,57.38
2023-05-07T01:24:19.067Z,57.46
2023-05-07T01:26:46.248Z,57.56
2023-05-07T01:29:14.852Z,58.06
2023-05-07T01:31:42.045Z,58.10
2023-05-07T01:34:14.225Z,58.17
2023-05-07T01:36:41.085Z,58.49
2023-05-07T01:39:13.090Z,58.82
2023-05-07T01:41:40.504Z,59.29
2023-05-07T01:44:07.627Z,59.60
2023-05-07T01:46:34.492Z,59.62
2023-05-07T01:49:01.474Z,59.49
2023-05-07T01:51:28.652Z,59.82
2023-05-07T01:53:56.830Z,60.11
2023-05-07T01:56:25.509Z,60.42
2023-05-07T01:58:52.614Z,60.34
2023-05-07T02:01:19.785Z,60.38
2023-05-07T02:03:47.425Z,60.54
2023-05-07T02:06:19.910Z,60.81
2023-05-07T02:08:47.440Z,60.79
2023-05-07T02:11:15.514Z,60.96
2023-05-07T02:13:43.015Z,61.05
2023-05-07T02:16:15.276Z,61.15
2023-05-07T02:18:42.304Z,61.31
2023-05-07T02:21:14.228Z,61.58
2023-05-07T02:23:41.091Z,61.80
2023-05-07T02:26:08.255Z,62.02
2023-05-07T02:28:36.058Z,62.23
2023-05-07T02:31:04.935Z,62.37
2023-05-07T02:33:32.317Z,62.16
2023-05-07T02:36:10.183Z,62.28
2023-05-07T02:38:41.077Z,62.50
2023-05-07T02:41:07.931Z,62.19
2023-05-07T02:43:35.177Z,62.19
2023-05-07T02:46:03.265Z,62.16
2023-05-07T02:48:30.746Z,61.95
2023-05-07T02:50:58.375Z,62.10
2023-05-07T02:53:30.011Z,62.37
2023-05-07T02:55:57.732Z,62.22
2023-05-07T02:58:24.922Z,61.96
2023-05-07T03:00:51.990Z,61.85
2023-05-07T03:03:31.846Z,61.84
2023-05-07T03:05:58.709Z,61.97
2023-05-07T03:08:25.546Z,61.78
2023-05-07T03:10:57.689Z,61.69
2023-05-07T03:13:24.893Z,61.49
2023-05-07T03:15:52.592Z,61.34
2023-05-07T03:18:19.668Z,61.21
2023-05-07T03:20:48.452Z,60.93
2023-05-07T03:23:15.897Z,60.70
2023-05-07T03:25:42.831Z,60.59
2023-05-07T03:28:10.030Z,60.56
2023-05-07T03:30:53.499Z,60.49
2023-05-07T03:33:20.673Z,60.35
2023-05-07T03:35:47.685Z,60.56
2023-05-07T03:38:18.430Z,60.63
2023-05-07T03:40:45.331Z,60.35
2023-05-07T03:43:17.548Z,60.11
2023-05-07T03:45:48.170Z,59.58
2023-05-07T03:48:19.709Z,59.65
2023-05-07T03:50:48.508Z,59.75
2023-05-07T03:53:16.250Z,59.79
2023-05-07T03:55:43.320Z,59.69
2023-05-07T03:58:10.211Z,59.73
2023-05-07T04:00:39.624Z,59.62
2023-05-07T04:03:13.548Z,59.31
2023-05-07T04:05:41.499Z,59.36
2023-05-07T04:08:08.296Z,59.09
2023-05-07T04:10:43.306Z,58.24
2023-05-07T04:13:11.242Z,57.68
2023-05-07T04:15:38.191Z,57.15
2023-05-07T04:18:12.976Z,57.06
2023-05-07T04:20:41.045Z,56.71
2023-05-07T04:23:10.266Z,56.21
2023-05-07T04:25:37.783Z,55.58
2023-05-07T04:28:12.047Z,54.51
2023-05-07T04:30:39.477Z,54.35
2023-05-07T04:33:07.279Z,54.55
2023-05-07T04:35:36.086Z,54.48
2023-05-07T04:38:04.455Z,53.78
2023-05-07T04:40:33.688Z,53.57
2023-05-07T04:43:01.702Z,52.65
2023-05-07T04:45:32.673Z,52.15
2023-05-07T04:47:59.865Z,51.76
2023-05-07T04:50:32.662Z,51.59
2023-05-07T04:53:00.902Z,51.03
2023-05-07T04:55:27.684Z,50.50
2023-05-07T04:57:54.649Z,49.98
2023-05-07T05:00:21.782Z,49.06
2023-05-07T05:02:54.747Z,49.32
2023-05-07T05:05:22.174Z,48.63
2023-05-07T05:07:52.166Z,48.52
2023-05-07T05:10:19.369Z,48.17
2023-05-07T05:12:46.511Z,47.53
2023-05-07T05:15:13.429Z,46.92
2023-05-07T05:17:41.769Z,46.73
2023-05-07T05:20:11.469Z,46.58
2023-05-07T05:22:39.382Z,45.87
2023-05-07T05:25:06.975Z,45.66
2023-05-07T05:27:36.069Z,45.50
2023-05-07T05:30:04.359Z,45.10
2023-05-07T05:32:32.741Z,44.70
2023-05-07T05:35:00.594Z,44.49
2023-05-07T05:37:27.633Z,43.09
2023-05-07T05:39:55.352Z,42.40
2023-05-07T05:42:28.814Z,41.97
2023-05-07T05:45:01.010Z,41.71
2023-05-07T05:47:29.046Z,41.40
2023-05-07T05:50:01.576Z,41.19
2023-05-07T05:52:28.878Z,41.16
2023-05-07T05:54:56.292Z,41.12
2023-05-07T05:57:23.500Z,40.65
2023-05-07T05:59:55.729Z,40.62
2023-05-07T06:02:22.632Z,40.83
2023-05-07T06:04:49.903Z,40.71
2023-05-07T06:07:18.573Z,40.17
2023-05-07T06:09:45.518Z,40.36
2023-05-07T06:12:17.834Z,39.90
2023-05-07T06:14:44.735Z,39.27
2023-05-07T06:17:11.838Z,39.33
2023-05-07T06:19:39.237Z,38.87
2023-05-07T06:22:06.138Z,38.90
2023-05-07T06:24:34.745Z,39.07
2023-05-07T06:27:06.711Z,38.67
2023-05-07T06:29:34.186Z,38.73
2023-05-07T06:32:11.872Z,38.60
2023-05-07T06:34:40.393Z,38.48
2023-05-07T06:37:07.403Z,38.78
2023-05-07T06:39:49.219Z,38.61
2023-05-07T06:42:17.236Z,38.35
2023-05-07T06:44:44.297Z,38.63
2023-05-07T06:47:18.925Z,38.75
2023-05-07T06:49:48.986Z,38.04
2023-05-07T06:52:17.912Z,37.90
2023-05-07T06:54:45.451Z,37.96
2023-05-07T06:57:12.359Z,37.76
2023-05-07T06:59:44.515Z,37.17
2023-05-07T07:02:12.062Z,37.42
2023-05-07T07:04:39.760Z,36.97
2023-05-07T07:07:10.151Z,36.87
2023-05-07T07:09:37.324Z,37.03
2023-05-07T07:12:11.264Z,36.78
2023-05-07T07:14:39.225Z,36.53
2023-05-07T07:17:06.456Z,36.73
2023-05-07T07:19:34.294Z,36.47
2023-05-07T07:22:02.942Z,36.44
2023-05-07T07:24:30.087Z,35.87
2023-05-07T07:26:58.627Z,35.72
2023-05-07T07:29:30.703Z,35.87
2023-05-07T07:31:57.470Z,35.43
2023-05-07T07:34:24.809Z,35.73
2023-05-07T07:36:57.094Z,35.48
2023-05-07T07:39:24.452Z,35.14
2023-05-07T07:41:53.052Z,34.89
2023-05-07T07:44:20.877Z,35.34
2023-05-07T07:46:51.319Z,34.75
2023-05-07T07:49:18.796Z,34.26
2023-05-07T07:51:46.038Z,33.82
2023-05-07T07:54:13.050Z,34.06
2023-05-07T07:56:40.609Z,33.73
2023-05-07T07:59:07.615Z,33.22
2023-05-07T08:01:35.192Z,33.40
2023-05-07T08:04:03.947Z,33.21
2023-05-07T08:06:32.011Z,33.22
2023-05-07T08:08:58.873Z,32.65
2023-05-07T08:11:26.466Z,33.01
2023-05-07T08:13:55.499Z,32.69
2023-05-07T08:16:23.555Z,32.57
2023-05-07T08:18:52.406Z,31.80
2023-05-07T08:21:19.644Z,32.00
2023-05-07T08:23:46.423Z,31.59
2023-05-07T08:26:13.292Z,31.24
2023-05-07T08:28:40.333Z,31.12
2023-05-07T08:31:08.373Z,30.59
2023-05-07T08:33:42.040Z,30.59
2023-05-07T08:36:08.964Z,30.32
2023-05-07T08:38:36.317Z,30.04
2023-05-07T08:41:03.560Z,30.37
2023-05-07T08:43:31.210Z,29.08
2023-05-07T08:45:58.120Z,28.98
2023-05-07T08:48:27.344Z,28.84
2023-05-07T08:51:18.744Z,28.84
2023-05-07T08:53:46.884Z,28.25
2023-05-07T08:56:16.150Z,27.93
2023-05-07T08:58:43.663Z,27.34
2023-05-07T09:01:13.801Z,27.67
2023-05-07T09:03:40.948Z,27.40
2023-05-07T09:06:08.053Z,26.49
2023-05-07T09:08:52.088Z,25.74
2023-05-07T09:11:23.262Z,25.15
2023-05-07T09:13:54.805Z,24.60
2023-05-07T09:16:22.626Z,23.43
2023-05-07T09:18:51.947Z,22.96
2023-05-07T09:21:19.518Z,22.08
2023-05-07T09:23:51.993Z,22.08
2023-05-07T09:26:24.150Z,21.33
2023-05-07T09:28:51.401Z,21.21
2023-05-07T09:31:21.158Z,20.44
2023-05-07T09:33:49.187Z,19.97
2023-05-07T09:36:16.913Z,19.96
2023-05-07T09:38:44.889Z,19.12
2023-05-07T09:41:12.756Z,19.09
2023-05-07T09:43:55.161Z,18.74
2023-05-07T09:46:30.044Z,18.56
2023-05-07T09:49:00.560Z,17.77
2023-05-07T09:51:40.902Z,17.70
2023-05-07T09:54:07.806Z,17.45
2023-05-07T09:56:38.102Z,17.06
2023-05-07T09:59:05.288Z,16.76
2023-05-07T10:01:33.434Z,16.79
2023-05-07T10:04:02.753Z,17.26
2023-05-07T10:06:30.752Z,17.02
2023-05-07T10:08:57.620Z,16.61
2023-05-07T10:11:24.670Z,16.45
2023-05-07T10:13:51.737Z,15.83
2023-05-07T10:16:18.686Z,15.93
2023-05-07T10:18:48.782Z,15.64
2023-05-07T10:21:23.487Z,15.08
2023-05-07T10:23:57.934Z,15.57
2023-05-07T10:26:25.576Z,15.40
2023-05-07T10:28:59.112Z,14.72
2023-05-07T10:31:44.577Z,14.73
2023-05-07T10:34:11.810Z,14.40
2023-05-07T10:36:39.960Z,14.49
2023-05-07T10:39:07.814Z,14.57
2023-05-07T10:41:35.694Z,14.37
2023-05-07T10:44:02.629Z,14.35
2023-05-07T10:46:33.649Z,14.14
2023-05-07T10:49:08.619Z,13.77
2023-05-07T10:52:16.349Z,13.75
2023-05-07T10:55:10.659Z,13.70
2023-05-07T10:57:43.125Z,13.60
2023-05-07T11:00:39.099Z,13.41
2023-05-07T11:03:10.283Z,13.19
2023-05-07T11:05:43.091Z,13.40
2023-05-07T11:08:21.549Z,13.26
2023-05-07T11:11:04.579Z,13.16
2023-05-07T11:13:51.911Z,12.84
2023-05-07T11:16:37.197Z,12.84
2023-05-07T11:19:10.969Z,12.40
2023-05-07T11:21:42.653Z,12.81
2023-05-07T11:24:22.341Z,12.38
2023-05-07T11:26:53.707Z,11.77
2023-05-07T11:29:22.869Z,11.81
2023-05-07T11:31:54.807Z,11.75
2023-05-07T11:34:24.065Z,11.80
2023-05-07T11:36:51.566Z,12.45
2023-05-07T11:39:29.048Z,12.55
2023-05-07T11:41:56.044Z,12.22
2023-05-07T11:44:22.897Z,11.89
2023-05-07T11:46:49.999Z,11.77
2023-05-07T11:49:17.596Z,12.11
2023-05-07T11:51:45.450Z,12.09
2023-05-07T11:54:14.111Z,11.86
2023-05-07T11:56:41.057Z,12.34
2023-05-07T11:59:07.910Z,12.04
2023-05-07T12:01:35.874Z,11.78
2023-05-07T12:04:03.928Z,12.04
2023-05-07T12:06:31.442Z,11.87
2023-05-07T12:08:58.279Z,11.53
2023-05-07T12:11:26.309Z,11.99
2023-05-07T12:13:54.531Z,11.95
2023-05-07T12:16:22.236Z,12.20
2023-05-07T12:18:49.245Z,12.23
2023-05-07T12:21:17.671Z,12.17
2023-05-07T12:23:44.890Z,12.42
2023-05-07T12:26:12.068Z,12.47
2023-05-07T12:28:39.364Z,12.17
2023-05-07T12:31:06.597Z,12.54
2023-05-07T12:33:38.719Z,12.61
2023-05-07T12:36:07.817Z,12.68
2023-05-07T12:38:38.438Z,12.97
2023-05-07T12:41:07.483Z,13.05
2023-05-07T12:43:34.770Z,13.05
2023-05-07T12:46:06.732Z,13.00
2023-05-07T12:48:33.890Z,13.30
2023-05-07T12:51:01.717Z,13.01
2023-05-07T12:53:28.920Z,12.89
2023-05-07T12:56:01.206Z,13.32
2023-05-07T12:58:33.455Z,13.11
2023-05-07T13:01:02.067Z,12.79
2023-05-07T13:03:29.706Z,12.80
2023-05-07T13:06:00.994Z,12.77
2023-05-07T13:08:32.153Z,12.86
2023-05-07T13:11:00.856Z,12.82
2023-05-07T13:13:30.115Z,12.97
2023-05-07T13:15:58.740Z,13.23
2023-05-07T13:18:26.838Z,13.19
2023-05-07T13:20:54.162Z,13.31
2023-05-07T13:23:21.574Z,13.27
2023-05-07T13:25:49.011Z,13.07
2023-05-07T13:28:17.190Z,12.78
2023-05-07T13:30:44.101Z,13.04
2023-05-07T13:33:11.099Z,13.21
2023-05-07T13:35:38.152Z,13.20
2023-05-07T13:38:10.633Z,13.31
2023-05-07T13:40:37.936Z,13.60
2023-05-07T13:43:05.978Z,13.74
2023-05-07T13:45:33.215Z,13.38
2023-05-07T13:48:00.959Z,13.28
2023-05-07T13:50:29.607Z,13.51
2023-05-07T13:52:56.548Z,13.44
2023-05-07T13:55:24.269Z,13.62
2023-05-07T13:58:06.921Z,13.74
2023-05-07T14:00:39.507Z,13.87
2023-05-07T14:03:06.798Z,13.81
2023-05-07T14:05:34.121Z,14.15
2023-05-07T14:08:01.104Z,14.50
2023-05-07T14:10:28.411Z,14.43
2023-05-07T14:12:55.392Z,14.38
2023-05-07T14:15:22.532Z,14.66
2023-05-07T14:17:49.563Z,14.83
2023-05-07T14:20:16.423Z,14.92
2023-05-07T14:22:43.546Z,15.14
2023-05-07T14:25:10.360Z,15.21
2023-05-07T14:27:37.374Z,15.16
2023-05-07T14:30:04.884Z,15.15
2023-05-07T14:32:33.449Z,15.60
2023-05-07T14:35:00.946Z,15.57
2023-05-07T14:37:28.625Z,15.75
2023-05-07T14:39:55.539Z,15.89
2023-05-07T14:42:22.613Z,16.17
2023-05-07T14:44:49.543Z,16.38
2023-05-07T14:47:17.612Z,16.63
2023-05-07T14:49:46.519Z,16.36
2023-05-07T14:52:13.423Z,16.88
2023-05-07T14:54:40.284Z,16.94
2023-05-07T14:57:10.496Z,16.89
2023-05-07T14:59:38.374Z,16.73
2023-05-07T15:02:08.261Z,16.84
2023-05-07T15:04:35.188Z,17.27
2023-05-07T15:07:02.362Z,17.44
2023-05-07T15:09:29.774Z,17.39
2023-05-07T15:11:56.925Z,17.73
2023-05-07T15:14:23.711Z,17.70
2023-05-07T15:16:50.620Z,17.57
2023-05-07T15:19:17.622Z,17.61
2023-05-07T15:21:44.500Z,17.40
2023-05-07T15:24:11.491Z,17.45
2023-05-07T15:26:38.565Z,17.69
2023-05-07T15:29:10.262Z,18.07
2023-05-07T15:31:38.514Z,18.44
2023-05-07T15:34:10.569Z,18.49
2023-05-07T15:36:38.074Z,18.25
2023-05-07T15:39:05.315Z,18.40
2023-05-07T15:41:33.445Z,18.61
2023-05-07T15:44:00.251Z,18.49
2023-05-07T15:46:32.660Z,18.64
2023-05-07T15:49:01.031Z,18.66
2023-05-07T15:51:28.637Z,19.17
2023-05-07T15:54:00.798Z,19.32
2023-05-07T15:56:28.083Z,19.48
2023-05-07T15:58:54.955Z,19.68
2023-05-07T16:03:48.979Z,19.89
2023-05-07T16:06:21.219Z,20.30
2023-05-07T16:08:48.604Z,20.41
2023-05-07T16:11:15.490Z,20.49
2023-05-07T16:13:42.688Z,20.66
2023-05-07T16:16:09.595Z,20.86
2023-05-07T16:18:36.628Z,21.04
2023-05-07T16:21:03.547Z,21.11
2023-05-07T16:23:31.064Z,21.04
2023-05-07T16:25:57.955Z,21.36
2023-05-07T16:28:25.686Z,21.81
2023-05-07T16:30:53.002Z,22.07
2023-05-07T16:33:20.050Z,22.30
2023-05-07T16:35:53.298Z,22.62
2023-05-07T16:38:20.202Z,22.91
2023-05-07T16:40:47.087Z,23.04
2023-05-07T16:43:14.033Z,23.29
2023-05-07T16:45:40.979Z,23.63
2023-05-07T16:48:12.966Z,23.99
2023-05-07T16:50:41.146Z,24.23
2023-05-07T16:53:08.022Z,24.28
2023-05-07T16:55:38.608Z,24.39
2023-05-07T16:58:11.533Z,24.69
2023-05-07T17:00:49.833Z,24.83
2023-05-07T17:03:18.725Z,25.24
2023-05-07T17:05:46.080Z,25.36
2023-05-07T17:08:12.983Z,25.77
2023-05-07T17:10:40.176Z,26.01
2023-05-07T17:13:07.261Z,26.30
2023-05-07T17:15:34.138Z,26.44
2023-05-07T17:18:06.351Z,26.48
2023-05-07T17:20:34.097Z,26.78
2023-05-07T17:23:01.026Z,26.89
2023-05-07T17:25:28.320Z,27.13
2023-05-07T17:27:55.266Z,27.29
2023-05-07T17:30:22.280Z,27.34
2023-05-07T17:32:49.544Z,27.51
2023-05-07T17:35:16.723Z,27.57
2023-05-07T17:37:48.636Z,27.64
2023-05-07T17:40:15.871Z,27.89
2023-05-07T17:42:42.916Z,28.04
2023-05-07T17:45:10.728Z,28.01
2023-05-07T17:47:37.960Z,28.33
2023-05-07T17:50:10.326Z,28.48
2023-05-07T17:52:43.333Z,28.88
2023-05-07T17:55:10.620Z,28.97
2023-05-07T17:57:38.491Z,29.20
2023-05-07T18:00:07.268Z,29.43
2023-05-07T18:02:34.953Z,29.56
2023-05-07T18:05:02.969Z,29.73
2023-05-07T18:07:30.675Z,29.77
2023-05-07T18:09:57.897Z,29.97
2023-05-07T18:12:26.909Z,29.82
2023-05-07T18:14:59.698Z,30.01
2023-05-07T18:17:27.378Z,30.16
2023-05-07T18:19:55.418Z,30.17
2023-05-07T18:22:22.812Z,30.26
2023-05-07T18:24:50.381Z,30.59
2023-05-07T18:27:17.820Z,30.69
2023-05-07T18:29:45.066Z,30.78
2023-05-07T18:32:12.996Z,30.86
2023-05-07T18:34:39.971Z,30.92
2023-05-07T18:37:06.853Z,30.98
2023-05-07T18:39:34.939Z,31.02
2023-05-07T18:42:04.608Z,31.14
2023-05-07T18:44:31.711Z,31.20
2023-05-07T18:46:59.053Z,31.13
2023-05-07T18:49:25.871Z,31.12
2023-05-07T18:51:57.860Z,31.26
2023-05-07T18:54:24.641Z,31.37
2023-05-07T18:56:51.436Z,31.24
2023-05-07T18:59:18.349Z,31.49
2023-05-07T19:01:45.654Z,31.62
2023-05-07T19:04:12.630Z,31.65
2023-05-07T19:06:39.568Z,31.93
2023-05-07T19:09:06.392Z,32.03
2023-05-07T19:11:33.412Z,32.19
2023-05-07T19:14:06.246Z,32.33
2023-05-07T19:16:33.435Z,32.34
2023-05-07T19:19:00.484Z,32.51
2023-05-07T19:21:28.164Z,32.59
2023-05-07T19:23:56.914Z,32.64
2023-05-07T19:26:23.772Z,32.82
2023-05-07T19:29:06.596Z,32.72
2023-05-07T19:31:38.339Z,33.12
2023-05-07T19:34:05.241Z,33.04
2023-05-07T19:36:33.889Z,33.09
2023-05-07T19:39:00.780Z,32.98
2023-05-07T19:41:28.241Z,32.97
2023-05-07T19:43:55.142Z,33.00
2023-05-07T19:46:27.338Z,33.07
2023-05-07T19:48:54.151Z,33.18
2023-05-07T19:51:21.114Z,33.31
2023-05-07T19:53:48.727Z,33.35
2023-05-07T19:56:21.777Z,33.54
2023-05-07T19:58:48.746Z,33.54
2023-05-07T20:01:15.757Z,33.79
2023-05-07T20:03:43.646Z,33.80
2023-05-07T20:06:11.681Z,33.75
2023-05-07T20:08:38.538Z,33.69
2023-05-07T20:11:05.763Z,33.54
2023-05-07T20:13:32.772Z,33.46
2023-05-07T20:16:00.198Z,33.56
2023-05-07T20:18:27.819Z,33.50
2023-05-07T20:20:59.954Z,33.63
2023-05-07T20:23:26.972Z,33.70
2023-05-07T20:25:54.335Z,33.68
2023-05-07T20:28:21.273Z,33.67
2023-05-07T20:30:48.149Z,33.88
2023-05-07T20:33:15.647Z,33.94
2023-05-07T20:35:42.701Z,33.82
2023-05-07T20:38:09.632Z,33.95
2023-05-07T20:40:42.430Z,34.10
2023-05-07T20:43:09.758Z,34.24
2023-05-07T20:45:36.731Z,34.32
2023-05-07T20:48:03.717Z,34.22
2023-05-07T20:50:31.860Z,34.11
2023-05-07T20:52:58.701Z,34.10
2023-05-07T20:55:25.620Z,34.05
2023-05-07T20:57:52.987Z,34.24
2023-05-07T21:00:20.060Z,34.43
2023-05-07T21:02:46.905Z,34.62
2023-05-07T21:05:13.812Z,34.73
2023-05-07T21:07:40.617Z,34.89
2023-05-07T21:10:07.899Z,34.84
2023-05-07T21:12:35.203Z,34.89
2023-05-07T21:15:02.067Z,35.08
2023-05-07T21:17:31.408Z,35.19
2023-05-07T21:19:58.374Z,35.35
2023-05-07T21:22:32.639Z,35.35
2023-05-07T21:25:00.147Z,35.57
2023-05-07T21:27:30.171Z,36.21
2023-05-07T21:30:02.728Z,36.44
2023-05-07T21:32:30.441Z,37.00
2023-05-07T21:34:59.056Z,36.75
2023-05-07T21:37:25.980Z,36.92
2023-05-07T21:39:52.863Z,37.20
2023-05-07T21:42:21.830Z,37.09
2023-05-07T21:44:50.458Z,37.26
2023-05-07T21:47:17.842Z,37.52
2023-05-07T21:49:44.722Z,37.82
2023-05-07T21:52:20.590Z,37.76
2023-05-07T21:54:47.405Z,38.04
2023-05-07T21:57:14.208Z,37.78
2023-05-07T21:59:41.188Z,37.40
2023-05-07T22:02:08.048Z,37.77
2023-05-07T22:04:34.914Z,37.54
2023-05-07T22:07:01.768Z,37.47
2023-05-07T22:09:28.891Z,37.53
2023-05-07T22:11:55.619Z,37.88
2023-05-07T22:14:27.514Z,38.04
2023-05-07T22:16:54.373Z,38.23
2023-05-07T22:19:21.352Z,38.44
2023-05-07T22:21:48.161Z,38.48
2023-05-07T22:24:14.979Z,38.56
2023-05-07T22:26:48.248Z,38.66
2023-05-07T22:29:15.040Z,38.67
2023-05-07T22:31:41.933Z,38.62
2023-05-07T22:34:08.782Z,38.49
2023-05-07T22:36:36.272Z,38.60
2023-05-07T22:39:06.545Z,38.53
2023-05-07T22:41:33.619Z,38.52
2023-05-07T22:44:00.525Z,38.57
2023-05-07T22:46:27.612Z,38.69
2023-05-07T22:48:54.755Z,38.66
2023-05-07T22:51:21.701Z,38.68
2023-05-07T22:53:48.610Z,38.63
2023-05-07T22:56:21.657Z,38.62
2023-05-07T22:58:49.042Z,38.85
2023-05-07T23:01:16.940Z,38.76
2023-05-07T23:03:43.863Z,38.91
2023-05-07T23:06:10.830Z,39.06
2023-05-07T23:08:37.628Z,38.86
2023-05-07T23:11:07.309Z,39.10
2023-05-07T23:13:34.378Z,39.24
2023-05-07T23:16:01.206Z,39.13
2023-05-07T23:18:29.805Z,39.12
2023-05-07T23:21:01.641Z,38.98
2023-05-07T23:23:33.115Z,39.12
2023-05-07T23:26:00.172Z,39.17
2023-05-07T23:28:32.373Z,39.25
2023-05-07T23:30:59.244Z,39.16
2023-05-07T23:33:26.177Z,39.34
2023-05-07T23:36:00.808Z,39.54
2023-05-07T23:38:27.922Z,39.66
2023-05-07T23:40:54.995Z,39.56
2023-05-07T23:43:21.993Z,39.55
2023-05-07T23:45:48.839Z,39.60
2023-05-07T23:48:16.080Z,39.95
2023-05-07T23:50:42.979Z,39.91
2023-05-07T23:53:10.126Z,39.84
2023-05-07T23:55:36.929Z,40.00
2023-05-07T23:58:04.276Z,40.13
